createdAt,value
2018-05-26T00:00:21.168Z,20.77
2018-05-26T00:01:21.196Z,20.77
2018-05-26T00:02:21.140Z,20.71
2018-05-26T00:03:21.165Z,20.67
2018-05-26T00:04:21.263Z,20.68
2018-05-26T00:05:21.181Z,20.73
2018-05-26T00:06:21.221Z,20.63
2018-05-26T00:07:21.204Z,20.67
2018-05-26T00:08:21.245Z,20.63
2018-05-26T00:09:21.291Z,20.59
2018-05-26T00:10:21.295Z,20.60
2018-05-26T00:11:21.276Z,20.67
2018-05-26T00:12:21.313Z,20.67
2018-05-26T00:13:21.327Z,20.71
2018-05-26T00:14:21.304Z,20.74
2018-05-26T00:15:21.436Z,20.73
2018-05-26T00:16:21.364Z,20.70
2018-05-26T00:17:21.346Z,20.78
2018-05-26T00:18:21.374Z,20.71
2018-05-26T00:19:21.381Z,20.77
2018-05-26T00:20:21.394Z,20.82
2018-05-26T00:21:21.435Z,20.77
2018-05-26T04:36:52.578Z,21.97
2018-05-26T04:37:52.563Z,22.00
2018-05-26T04:38:52.581Z,22.03
2018-05-26T04:39:52.597Z,22.07
2018-05-26T04:40:52.664Z,22.10
2018-05-26T04:41:52.657Z,22.16
2018-05-26T04:42:52.625Z,22.18
2018-05-26T04:43:52.734Z,22.21
2018-05-26T04:44:52.709Z,22.26
2018-05-26T04:45:52.663Z,22.33
2018-05-26T04:46:52.701Z,22.41
2018-05-26T04:47:52.688Z,22.71
2018-05-26T04:48:52.772Z,22.88
2018-05-26T04:49:52.784Z,23.16
2018-05-26T04:50:52.798Z,23.49
2018-05-26T04:51:52.855Z,23.70
2018-05-26T04:52:52.880Z,23.96
2018-05-26T04:53:52.767Z,24.13
2018-05-26T04:54:52.792Z,24.43
2018-05-26T04:55:52.848Z,24.55
2018-05-26T04:56:52.804Z,24.68
2018-05-26T04:57:52.860Z,24.92
2018-05-26T04:58:52.931Z,25.04
2018-05-26T04:59:52.861Z,25.26
2018-05-26T05:00:52.872Z,25.58
2018-05-26T05:01:52.927Z,25.74
2018-05-26T05:02:53.167Z,26.04
2018-05-26T05:03:52.915Z,26.23
2018-05-26T05:04:52.926Z,26.46
2018-05-26T05:05:52.946Z,26.68
2018-05-26T05:06:52.998Z,26.82
2018-05-26T05:07:52.963Z,27.20
2018-05-26T05:08:53.009Z,27.45
2018-05-26T05:09:53.025Z,27.71
2018-05-26T05:10:53.029Z,27.72
2018-05-26T05:11:53.062Z,27.88
2018-05-26T05:12:53.084Z,27.90
2018-05-26T05:13:53.073Z,28.08
2018-05-26T05:14:53.086Z,28.31
2018-05-26T05:15:53.114Z,28.80
2018-05-26T05:16:53.179Z,28.96
2018-05-26T05:17:53.140Z,29.06
2018-05-26T05:18:53.169Z,29.39
2018-05-26T05:19:53.182Z,29.58
2018-05-26T05:20:53.202Z,29.83
2018-05-26T05:21:53.271Z,29.87
2018-05-26T05:22:53.272Z,30.05
2018-05-26T05:23:53.253Z,30.13
2018-05-26T05:24:53.256Z,29.98
2018-05-26T05:25:53.299Z,29.74
2018-05-26T05:26:53.307Z,29.86
2018-05-26T05:27:53.355Z,29.84
2018-05-26T05:28:53.359Z,29.83
2018-05-26T05:29:53.369Z,29.62
2018-05-26T05:30:53.404Z,29.86
2018-05-26T05:31:53.405Z,29.96
2018-05-26T05:32:53.431Z,29.84
2018-05-26T05:33:53.440Z,29.74
2018-05-26T05:34:53.501Z,29.64
2018-05-26T05:35:53.494Z,29.43
2018-05-26T05:36:53.492Z,29.09
2018-05-26T05:37:53.513Z,28.84
2018-05-26T05:38:53.528Z,28.55
2018-05-26T05:39:53.558Z,28.01
2018-05-26T05:40:53.588Z,27.72
2018-05-26T05:41:53.579Z,27.40
2018-05-26T05:42:53.589Z,26.98
2018-05-26T05:43:53.622Z,26.64
2018-05-26T05:44:53.644Z,26.44
2018-05-26T05:45:53.657Z,26.44
2018-05-26T05:46:53.686Z,26.34
2018-05-26T05:47:53.705Z,25.99
2018-05-26T05:48:53.696Z,25.91
2018-05-26T05:49:53.714Z,25.81
2018-05-26T05:50:53.751Z,25.74
2018-05-26T05:51:53.768Z,25.59
2018-05-26T05:52:53.763Z,25.52
2018-05-26T05:53:53.769Z,25.40
2018-05-26T05:54:53.816Z,25.33
2018-05-26T05:55:53.808Z,25.24
2018-05-26T05:56:53.831Z,25.15
2018-05-26T05:57:53.864Z,25.01
2018-05-26T05:58:53.856Z,25.00
2018-05-26T05:59:53.916Z,24.84
2018-05-26T06:00:53.892Z,24.75
2018-05-26T06:01:53.934Z,24.71
2018-05-26T06:02:53.925Z,24.53
2018-05-26T06:03:53.928Z,24.50
2018-05-26T06:04:53.952Z,24.19
2018-05-26T06:05:54.032Z,24.19
2018-05-26T06:06:53.980Z,24.16
2018-05-26T06:07:53.986Z,24.10
2018-05-26T06:08:54.014Z,24.04
2018-05-26T06:09:54.031Z,24.07
2018-05-26T06:10:54.080Z,23.95
2018-05-26T06:11:54.115Z,23.96
2018-05-26T06:12:54.065Z,23.70
2018-05-26T06:13:54.083Z,23.71
2018-05-26T06:14:54.122Z,23.64
2018-05-26T06:15:54.116Z,23.66
2018-05-26T06:16:54.172Z,23.64
2018-05-26T06:17:54.177Z,23.63
2018-05-26T06:18:54.169Z,23.52
2018-05-26T06:19:54.216Z,23.45
2018-05-26T06:20:54.229Z,23.34
2018-05-26T06:21:54.211Z,23.36
2018-05-26T06:22:54.238Z,23.49
2018-05-26T06:23:54.266Z,23.52
2018-05-26T06:24:54.402Z,23.42
2018-05-26T06:25:54.296Z,23.39
2018-05-26T06:26:54.285Z,23.42
2018-05-26T06:27:54.309Z,23.40
2018-05-26T06:28:54.319Z,23.37
2018-05-26T06:29:54.373Z,23.45
2018-05-26T06:30:54.356Z,23.47
2018-05-26T06:31:54.362Z,23.42
2018-05-26T06:32:54.396Z,23.48
2018-05-26T06:33:54.402Z,23.58
2018-05-26T06:34:54.406Z,23.62
2018-05-26T06:35:54.411Z,23.55
2018-05-26T06:36:54.468Z,23.54
2018-05-26T06:37:54.471Z,23.64
2018-05-26T06:38:54.472Z,23.69
2018-05-26T06:39:54.486Z,23.77
2018-05-26T06:40:54.493Z,23.92
2018-05-26T06:41:54.545Z,23.91
2018-05-26T06:42:54.559Z,23.81
2018-05-26T06:43:54.596Z,23.96
2018-05-26T06:44:54.565Z,23.89
2018-05-26T06:45:54.602Z,23.88
2018-05-26T06:46:54.635Z,23.89
2018-05-26T06:47:54.620Z,23.73
2018-05-26T06:48:54.650Z,23.82
2018-05-26T06:49:54.624Z,23.77
2018-05-26T06:50:54.636Z,23.84
2018-05-26T06:51:54.662Z,23.73
2018-05-26T06:52:54.670Z,23.71
2018-05-26T06:53:54.711Z,23.59
2018-05-26T06:54:54.716Z,23.59
2018-05-26T06:55:54.869Z,23.63
2018-05-26T06:56:54.713Z,23.55
2018-05-26T06:57:54.757Z,23.54
2018-05-26T06:58:54.771Z,23.58
2018-05-26T06:59:54.816Z,23.55
2018-05-26T07:00:54.782Z,23.40
2018-05-26T07:01:54.829Z,23.45
2018-05-26T07:02:54.820Z,23.52
2018-05-26T07:03:54.838Z,23.55
2018-05-26T07:04:54.893Z,23.45
2018-05-26T07:05:54.869Z,23.54
2018-05-26T07:06:54.893Z,23.28
2018-05-26T07:07:54.907Z,23.36
2018-05-26T07:08:54.910Z,23.36
2018-05-26T07:09:54.967Z,23.28
2018-05-26T07:10:54.988Z,23.29
2018-05-26T07:11:54.935Z,23.20
2018-05-26T07:12:54.990Z,23.17
2018-05-26T07:13:55.003Z,23.13
2018-05-26T07:14:55.001Z,23.28
2018-05-26T07:15:55.050Z,23.29
2018-05-26T07:16:55.020Z,23.33
2018-05-26T07:17:55.029Z,23.28
2018-05-26T07:18:55.084Z,23.32
2018-05-26T07:19:55.073Z,23.28
2018-05-26T07:20:55.096Z,23.42
2018-05-26T07:21:55.098Z,23.33
2018-05-26T07:22:55.103Z,23.32
2018-05-26T07:23:55.167Z,23.33
2018-05-26T07:24:55.157Z,23.18
2018-05-26T07:25:55.187Z,23.28
2018-05-26T07:26:55.236Z,23.28
2018-05-26T07:27:55.247Z,23.32
2018-05-26T07:28:55.235Z,23.33
2018-05-26T07:29:55.269Z,23.29
2018-05-26T07:30:55.250Z,23.32
2018-05-26T07:31:55.260Z,23.23
2018-05-26T07:32:55.313Z,23.36
2018-05-26T07:33:55.323Z,23.32
2018-05-26T07:34:55.344Z,23.34
2018-05-26T07:35:55.345Z,23.39
2018-05-26T07:36:55.355Z,23.36
2018-05-26T07:37:55.342Z,23.33
2018-05-26T07:38:55.371Z,23.42
2018-05-26T07:39:55.377Z,23.40
2018-05-26T07:40:55.378Z,23.37
2018-05-26T07:41:55.435Z,23.40
2018-05-26T07:42:55.430Z,23.55
2018-05-26T07:43:55.419Z,23.44
2018-05-26T07:44:55.443Z,23.47
2018-05-26T07:45:55.461Z,23.49
2018-05-26T07:46:55.496Z,23.52
2018-05-26T07:47:55.540Z,23.48
2018-05-26T07:48:55.499Z,23.49
2018-05-26T07:49:55.501Z,23.49
2018-05-26T07:50:55.536Z,23.62
2018-05-26T07:51:55.567Z,23.55
2018-05-26T07:52:55.626Z,23.54
2018-05-26T07:53:55.624Z,23.52
2018-05-26T07:54:55.591Z,23.42
2018-05-26T07:55:55.619Z,23.47
2018-05-26T07:56:55.660Z,23.56
2018-05-26T07:57:55.662Z,23.56
2018-05-26T07:58:55.663Z,23.64
2018-05-26T07:59:55.715Z,23.55
2018-05-26T08:00:55.675Z,23.47
2018-05-26T08:01:55.690Z,23.48
2018-05-26T08:02:55.746Z,23.39
2018-05-26T08:03:55.710Z,23.48
2018-05-26T08:04:55.775Z,23.40
2018-05-26T08:05:55.930Z,23.54
2018-05-26T08:06:55.776Z,23.36
2018-05-26T08:07:55.792Z,23.44
2018-05-26T08:08:55.799Z,23.40
2018-05-26T08:09:55.843Z,23.55
2018-05-26T08:10:55.934Z,23.47
2018-05-26T08:11:55.844Z,23.49
2018-05-26T08:12:55.920Z,23.40
2018-05-26T08:13:55.903Z,23.47
2018-05-26T08:14:55.889Z,23.42
2018-05-26T08:15:55.969Z,23.42
2018-05-26T08:16:55.923Z,23.37
2018-05-26T08:17:56.001Z,23.40
2018-05-26T08:18:55.951Z,23.37
2018-05-26T08:19:55.973Z,23.37
2018-05-26T08:20:56.021Z,23.44
2018-05-26T08:21:55.987Z,23.42
2018-05-26T08:22:56.000Z,23.39
2018-05-26T08:23:56.048Z,23.56
2018-05-26T08:24:56.053Z,23.48
2018-05-26T08:25:56.318Z,23.51
2018-05-26T08:26:56.063Z,23.21
2018-05-26T08:27:56.084Z,23.34
2018-05-26T08:28:56.161Z,23.36
2018-05-26T08:29:56.127Z,23.37
2018-05-26T08:30:56.137Z,23.42
2018-05-26T08:31:56.146Z,23.34
2018-05-26T08:32:56.164Z,23.29
2018-05-26T08:33:56.276Z,23.32
2018-05-26T08:34:56.218Z,23.40
2018-05-26T08:35:56.248Z,23.42
2018-05-26T08:36:56.216Z,23.49
2018-05-26T08:37:56.235Z,23.52
2018-05-26T08:38:56.443Z,23.55
2018-05-26T08:39:56.287Z,23.56
2018-05-26T08:40:56.316Z,23.51
2018-05-26T08:41:56.282Z,23.58
2018-05-26T08:42:56.327Z,23.62
2018-05-26T08:43:56.352Z,23.62
2018-05-26T08:44:56.694Z,23.67
2018-05-26T08:45:56.411Z,23.69
2018-05-26T08:46:56.358Z,23.67
2018-05-26T08:47:56.379Z,23.69
2018-05-26T08:48:56.412Z,23.82
2018-05-26T08:49:56.415Z,23.79
2018-05-26T08:50:56.449Z,23.82
2018-05-26T08:51:56.505Z,23.74
2018-05-26T08:52:56.450Z,23.67
2018-05-26T08:53:56.466Z,23.66
2018-05-26T08:54:56.507Z,23.63
2018-05-26T08:55:56.515Z,23.69
2018-05-26T08:56:56.601Z,23.67
2018-05-26T08:57:56.560Z,23.73
2018-05-26T08:58:56.560Z,23.70
2018-05-26T08:59:56.564Z,23.66
2018-05-26T09:00:56.617Z,23.66
2018-05-26T09:01:56.632Z,23.58
2018-05-26T09:02:56.672Z,23.58
2018-05-26T09:03:56.681Z,23.62
2018-05-26T09:04:56.658Z,23.56
2018-05-26T09:05:56.653Z,23.66
2018-05-26T09:06:56.667Z,23.67
2018-05-26T09:07:56.720Z,23.69
2018-05-26T09:08:56.911Z,23.69
2018-05-26T09:09:56.737Z,23.71
2018-05-26T09:10:56.719Z,23.84
2018-05-26T09:11:56.744Z,23.79
2018-05-26T09:12:56.754Z,23.91
2018-05-26T09:13:56.808Z,23.85
2018-05-26T09:14:56.864Z,23.91
2018-05-26T09:15:56.820Z,23.85
2018-05-26T09:16:56.815Z,23.92
2018-05-26T09:17:56.836Z,24.00
2018-05-26T09:18:56.832Z,23.92
2018-05-26T09:19:56.899Z,23.95
2018-05-26T09:20:56.902Z,23.95
2018-05-26T09:21:56.907Z,23.94
2018-05-26T09:22:56.906Z,24.07
2018-05-26T09:23:56.928Z,24.06
2018-05-26T09:24:56.953Z,24.03
2018-05-26T09:25:56.991Z,24.09
2018-05-26T09:26:56.956Z,24.14
2018-05-26T09:27:56.972Z,24.04
2018-05-26T09:28:57.138Z,23.99
2018-05-26T09:29:57.106Z,23.95
2018-05-26T09:30:57.089Z,23.89
2018-05-26T09:31:57.040Z,23.94
2018-05-26T09:32:57.064Z,23.94
2018-05-26T09:33:57.279Z,24.03
2018-05-26T09:34:57.112Z,23.89
2018-05-26T09:35:57.138Z,23.96
2018-05-26T09:36:57.113Z,24.07
2018-05-26T09:37:57.152Z,24.01
2018-05-26T09:38:57.228Z,24.01
2018-05-26T09:39:57.157Z,24.10
2018-05-26T09:40:57.198Z,24.09
2018-05-26T09:41:57.282Z,24.06
2018-05-26T09:42:57.213Z,24.01
2018-05-26T09:43:57.280Z,24.01
2018-05-26T09:44:57.234Z,24.01
2018-05-26T09:45:57.261Z,23.95
2018-05-26T09:46:57.306Z,24.03
2018-05-26T09:47:57.349Z,24.03
2018-05-26T09:48:57.346Z,24.04
2018-05-26T09:49:57.302Z,24.14
2018-05-26T09:50:57.331Z,24.18
2018-05-26T09:51:57.553Z,24.18
2018-05-26T09:52:57.413Z,24.29
2018-05-26T09:53:57.437Z,24.16
2018-05-26T09:54:57.400Z,24.18
2018-05-26T09:55:57.466Z,24.29
2018-05-26T09:56:57.456Z,24.31
2018-05-26T09:57:57.488Z,24.34
2018-05-26T09:58:57.448Z,24.38
2018-05-26T09:59:57.555Z,24.44
2018-05-26T10:00:57.524Z,24.41
2018-05-26T10:01:57.617Z,24.31
2018-05-26T10:02:57.521Z,24.28
2018-05-26T10:03:57.532Z,24.18
2018-05-26T10:04:57.545Z,24.25
2018-05-26T10:05:57.546Z,24.19
2018-05-26T10:06:57.589Z,24.16
2018-05-26T10:07:57.684Z,24.19
2018-05-26T10:08:57.617Z,24.10
2018-05-26T10:09:57.651Z,24.18
2018-05-26T10:10:57.641Z,24.14
2018-05-26T10:11:57.705Z,24.11
2018-05-26T10:12:57.699Z,24.29
2018-05-26T10:13:57.688Z,24.29
2018-05-26T10:14:57.709Z,24.18
2018-05-26T10:15:57.719Z,24.22
2018-05-26T10:16:57.740Z,24.32
2018-05-26T10:17:57.811Z,24.32
2018-05-26T10:18:57.797Z,24.32
2018-05-26T10:19:57.871Z,24.38
2018-05-26T10:20:57.784Z,24.44
2018-05-26T10:21:57.814Z,24.43
2018-05-26T10:22:57.833Z,24.46
2018-05-26T10:23:57.839Z,24.44
2018-05-26T10:24:57.988Z,24.50
2018-05-26T10:25:57.868Z,24.50
2018-05-26T10:26:57.894Z,24.53
2018-05-26T10:27:58.010Z,24.51
2018-05-26T10:28:57.904Z,24.51
2018-05-26T10:29:57.977Z,24.41
2018-05-26T10:30:58.003Z,24.48
2018-05-26T10:31:57.959Z,24.44
2018-05-26T10:32:57.978Z,24.44
2018-05-26T10:33:57.992Z,24.47
2018-05-26T10:34:58.002Z,24.50
2018-05-26T10:35:58.081Z,24.43
2018-05-26T10:36:58.063Z,24.48
2018-05-26T10:37:58.052Z,24.43
2018-05-26T10:38:58.092Z,24.48
2018-05-26T10:39:58.136Z,24.53
2018-05-26T10:40:58.099Z,24.40
2018-05-26T10:41:58.151Z,24.47
2018-05-26T10:42:58.170Z,24.50
2018-05-26T10:43:58.162Z,24.48
2018-05-26T10:44:58.143Z,24.46
2018-05-26T10:45:58.189Z,24.53
2018-05-26T10:46:58.232Z,24.59
2018-05-26T10:47:58.187Z,24.61
2018-05-26T10:48:58.209Z,24.61
2018-05-26T10:49:58.237Z,24.69
2018-05-26T10:50:58.274Z,24.71
2018-05-26T10:51:58.276Z,24.74
2018-05-26T10:52:58.330Z,24.71
2018-05-26T10:53:58.292Z,24.89
2018-05-26T10:54:58.298Z,24.93
2018-05-26T10:55:58.313Z,24.86
2018-05-26T10:56:58.356Z,24.89
2018-05-26T10:57:58.382Z,24.82
2018-05-26T10:58:58.423Z,24.88
2018-05-26T10:59:58.425Z,24.97
2018-05-26T11:00:58.395Z,25.09
2018-05-26T11:01:58.427Z,25.07
2018-05-26T11:02:58.434Z,25.11
2018-05-26T11:03:58.480Z,25.12
2018-05-26T11:04:58.515Z,25.09
2018-05-26T11:05:58.484Z,25.09
2018-05-26T11:06:58.522Z,25.18
2018-05-26T11:07:58.605Z,25.19
2018-05-26T11:08:58.533Z,25.29
2018-05-26T11:09:58.574Z,25.19
2018-05-26T11:10:58.581Z,25.25
2018-05-26T11:11:58.638Z,25.22
2018-05-26T11:12:58.637Z,25.26
2018-05-26T11:13:58.618Z,25.21
2018-05-26T11:14:58.633Z,25.06
2018-05-26T11:15:58.675Z,25.07
2018-05-26T11:16:58.675Z,25.21
2018-05-26T11:17:58.851Z,25.18
2018-05-26T11:18:58.699Z,25.26
2018-05-26T11:19:58.713Z,25.16
2018-05-26T11:20:58.791Z,25.12
2018-05-26T11:21:58.778Z,25.06
2018-05-26T11:22:58.824Z,25.07
2018-05-26T11:23:58.788Z,25.24
2018-05-26T11:24:58.825Z,25.18
2018-05-26T11:25:58.849Z,25.18
2018-05-26T11:26:58.866Z,25.09
2018-05-26T11:27:58.846Z,25.09
2018-05-26T11:28:58.886Z,25.14
2018-05-26T11:29:58.895Z,25.14
2018-05-26T11:30:59.008Z,25.19
2018-05-26T11:31:58.936Z,25.19
2018-05-26T11:32:58.916Z,25.26
2018-05-26T11:33:58.923Z,25.37
2018-05-26T11:34:58.967Z,25.24
2018-05-26T11:35:58.962Z,25.25
2018-05-26T11:36:59.033Z,25.22
2018-05-26T11:37:58.993Z,25.26
2018-05-26T11:38:59.005Z,25.24
2018-05-26T11:39:59.064Z,25.24
2018-05-26T11:40:59.037Z,25.24
2018-05-26T11:41:59.081Z,25.36
2018-05-26T11:42:59.136Z,25.34
2018-05-26T11:43:59.171Z,25.39
2018-05-26T11:44:59.104Z,25.39
2018-05-26T11:45:59.147Z,25.36
2018-05-26T11:46:59.138Z,25.40
2018-05-26T11:47:59.145Z,25.55
2018-05-26T11:48:59.199Z,25.54
2018-05-26T11:49:59.186Z,25.52
2018-05-26T11:50:59.198Z,25.58
2018-05-26T11:51:59.217Z,25.55
2018-05-26T11:52:59.264Z,25.54
2018-05-26T11:53:59.249Z,25.61
2018-05-26T11:54:59.275Z,25.61
2018-05-26T11:55:59.302Z,25.56
2018-05-26T11:56:59.336Z,25.63
2018-05-26T11:57:59.409Z,25.66
2018-05-26T11:58:59.367Z,25.73
2018-05-26T11:59:59.350Z,25.74
2018-05-26T12:00:59.403Z,25.80
2018-05-26T12:01:59.448Z,25.73
2018-05-26T12:02:59.401Z,25.83
2018-05-26T12:03:59.443Z,25.86
2018-05-26T12:04:59.432Z,25.85
2018-05-26T12:05:59.467Z,25.81
2018-05-26T12:06:59.465Z,25.85
2018-05-26T12:07:59.484Z,25.93
2018-05-26T12:08:59.557Z,25.92
2018-05-26T12:09:59.624Z,25.95
2018-05-26T12:10:59.516Z,25.98
2018-05-26T12:11:59.628Z,25.98
2018-05-26T12:13:00.115Z,26.03
2018-05-26T12:13:59.575Z,25.93
2018-05-26T12:14:59.629Z,26.04
2018-05-26T12:15:59.639Z,26.03
2018-05-26T12:16:59.703Z,25.99
2018-05-26T12:17:59.643Z,25.99
2018-05-26T12:18:59.663Z,26.13
2018-05-26T12:19:59.753Z,26.01
2018-05-26T12:20:59.703Z,26.07
2018-05-26T12:21:59.727Z,26.23
2018-05-26T12:22:59.763Z,26.15
2018-05-26T12:23:59.727Z,26.29
2018-05-26T12:24:59.778Z,26.29
2018-05-26T12:25:59.778Z,26.44
2018-05-26T12:26:59.868Z,26.34
2018-05-26T12:27:59.796Z,26.34
2018-05-26T12:28:59.820Z,26.36
2018-05-26T12:29:59.845Z,26.33
2018-05-26T12:30:59.876Z,26.34
2018-05-26T12:31:59.952Z,26.36
2018-05-26T12:32:59.892Z,26.46
2018-05-26T12:33:59.955Z,26.46
2018-05-26T12:34:59.977Z,26.49
2018-05-26T12:35:59.936Z,26.49
2018-05-26T12:36:59.973Z,26.55
2018-05-26T12:38:00.031Z,26.51
2018-05-26T12:39:00.007Z,26.49
2018-05-26T12:40:00.219Z,26.55
2018-05-26T12:41:00.017Z,26.60
2018-05-26T12:42:00.068Z,26.63
2018-05-26T12:43:00.111Z,26.55
2018-05-26T12:44:00.104Z,26.53
2018-05-26T12:45:00.099Z,26.48
2018-05-26T12:46:00.152Z,26.60
2018-05-26T12:47:00.173Z,26.52
2018-05-26T12:48:00.147Z,26.55
2018-05-26T12:49:00.225Z,26.59
2018-05-26T12:50:00.256Z,26.66
2018-05-26T12:51:00.223Z,26.71
2018-05-26T12:52:00.219Z,26.67
2018-05-26T12:53:00.277Z,26.74
2018-05-26T12:54:00.322Z,26.76
2018-05-26T12:55:00.290Z,26.68
2018-05-26T12:56:00.291Z,26.71
2018-05-26T12:57:00.385Z,26.66
2018-05-26T12:58:00.321Z,26.68
2018-05-26T12:59:00.329Z,26.70
2018-05-26T13:00:00.340Z,26.79
2018-05-26T13:01:00.430Z,26.74
2018-05-26T13:02:00.433Z,26.78
2018-05-26T13:03:00.586Z,26.71
2018-05-26T13:04:00.399Z,26.73
2018-05-26T13:05:00.461Z,26.78
2018-05-26T13:06:00.448Z,26.83
2018-05-26T13:07:00.469Z,26.82
2018-05-26T13:08:00.556Z,26.79
2018-05-26T13:09:00.481Z,26.86
2018-05-26T13:10:00.509Z,26.86
2018-05-26T13:11:00.534Z,26.82
2018-05-26T13:12:00.562Z,26.82
2018-05-26T13:13:00.593Z,26.78
2018-05-26T13:14:00.912Z,26.74
2018-05-26T13:15:00.897Z,26.88
2018-05-26T13:16:02.306Z,26.88
2018-05-26T13:17:00.641Z,26.92
2018-05-26T13:18:00.673Z,26.97
2018-05-26T13:19:01.201Z,27.00
2018-05-26T13:20:00.714Z,26.98
2018-05-26T13:21:00.781Z,26.91
2018-05-26T13:22:00.721Z,27.00
2018-05-26T13:23:00.799Z,27.04
2018-05-26T13:24:00.755Z,27.03
2018-05-26T13:25:00.802Z,27.07
2018-05-26T13:26:00.804Z,27.07
2018-05-26T13:27:00.818Z,27.10
2018-05-26T13:28:00.931Z,27.13
2018-05-26T13:29:00.837Z,27.07
2018-05-26T13:30:00.847Z,27.07
2018-05-26T13:31:00.905Z,27.11
2018-05-26T13:32:00.947Z,27.08
2018-05-26T13:33:00.937Z,27.10
2018-05-26T13:34:00.977Z,27.08
2018-05-26T13:35:00.977Z,27.18
2018-05-26T13:36:00.961Z,27.18
2018-05-26T13:37:00.973Z,27.15
2018-05-26T13:38:01.737Z,27.23
2018-05-26T13:39:01.069Z,27.19
2018-05-26T13:40:01.061Z,27.20
2018-05-26T13:41:01.214Z,27.18
2018-05-26T13:42:01.124Z,27.20
2018-05-26T13:43:01.083Z,27.15
2018-05-26T13:44:01.164Z,27.19
2018-05-26T13:45:01.181Z,27.10
2018-05-26T13:46:01.111Z,27.10
2018-05-26T13:47:01.159Z,27.01
2018-05-26T13:48:01.177Z,26.91
2018-05-26T13:49:01.200Z,27.07
2018-05-26T13:50:01.192Z,27.07
2018-05-26T13:51:01.256Z,27.01
2018-05-26T13:52:01.317Z,26.91
2018-05-26T13:53:01.374Z,26.89
2018-05-26T13:54:01.351Z,26.98
2018-05-26T13:55:01.343Z,26.96
2018-05-26T13:56:01.332Z,26.81
2018-05-26T13:57:01.306Z,26.70
2018-05-26T13:58:01.354Z,26.78
2018-05-26T13:59:01.372Z,26.53
2018-05-26T14:00:01.360Z,26.55
2018-05-26T14:01:01.411Z,26.53
2018-05-26T14:02:01.426Z,26.37
2018-05-26T14:03:01.458Z,26.41
2018-05-26T14:04:01.424Z,26.33
2018-05-26T14:05:01.491Z,26.08
2018-05-26T14:06:01.510Z,25.96
2018-05-26T14:07:01.496Z,25.81
2018-05-26T14:08:01.529Z,25.83
2018-05-26T14:09:01.533Z,25.74
2018-05-26T14:10:01.532Z,25.46
2018-05-26T14:11:01.642Z,25.54
2018-05-26T14:12:01.596Z,25.43
2018-05-26T14:13:01.653Z,25.33
2018-05-26T14:14:01.682Z,25.29
2018-05-26T14:15:01.616Z,25.30
2018-05-26T14:16:01.678Z,25.30
2018-05-26T14:17:01.631Z,25.30
2018-05-26T14:18:01.645Z,25.24
2018-05-26T14:19:01.690Z,25.19
2018-05-26T14:20:01.754Z,25.18
2018-05-26T14:21:01.961Z,25.07
2018-05-26T14:22:01.715Z,25.04
2018-05-26T14:23:01.749Z,25.04
2018-05-26T14:24:01.772Z,24.85
2018-05-26T14:25:01.828Z,24.77
2018-05-26T14:26:01.791Z,24.62
2018-05-26T14:27:01.849Z,24.68
2018-05-26T14:28:01.805Z,24.51
2018-05-26T14:29:01.861Z,24.56
2018-05-26T14:30:01.836Z,24.53
2018-05-26T14:31:01.964Z,24.65
2018-05-26T14:32:01.990Z,24.47
2018-05-26T14:33:01.885Z,24.46
2018-05-26T14:34:01.905Z,24.32
2018-05-26T14:35:01.933Z,24.37
2018-05-26T14:36:01.976Z,24.40
2018-05-26T14:37:01.959Z,24.40
2018-05-26T14:38:02.015Z,24.43
2018-05-26T14:39:02.026Z,24.40
2018-05-26T14:40:02.036Z,24.36
2018-05-26T14:41:02.088Z,24.46
2018-05-26T14:42:02.066Z,24.47
2018-05-26T14:43:02.091Z,24.38
2018-05-26T14:44:02.091Z,24.47
2018-05-26T14:45:02.138Z,24.47
2018-05-26T14:46:02.130Z,24.43
2018-05-26T14:47:02.255Z,24.48
2018-05-26T14:48:02.151Z,24.38
2018-05-26T14:49:02.144Z,24.41
2018-05-26T14:50:02.283Z,24.41
2018-05-26T14:51:02.185Z,24.38
2018-05-26T14:52:02.171Z,24.46
2018-05-26T14:53:02.215Z,24.44
2018-05-26T14:54:02.263Z,24.46
2018-05-26T14:55:02.248Z,24.48
2018-05-26T14:56:02.393Z,24.48
2018-05-26T14:57:02.310Z,24.50
2018-05-26T14:58:02.291Z,24.41
2018-05-26T14:59:02.316Z,24.40
2018-05-26T15:00:02.423Z,24.41
2018-05-26T15:01:02.386Z,24.40
2018-05-26T15:02:02.381Z,24.50
2018-05-26T15:03:02.350Z,24.46
2018-05-26T15:04:02.629Z,24.41
2018-05-26T15:05:02.418Z,24.43
2018-05-26T15:06:02.418Z,24.48
2018-05-26T15:07:02.538Z,24.48
2018-05-26T15:08:02.451Z,24.43
2018-05-26T15:09:02.449Z,24.56
2018-05-26T15:10:02.523Z,24.58
2018-05-26T15:11:02.659Z,24.46
2018-05-26T15:12:02.632Z,24.58
2018-05-26T15:13:02.619Z,24.53
2018-05-26T15:14:02.525Z,24.44
2018-05-26T15:15:02.536Z,24.55
2018-05-26T15:16:02.555Z,24.50
2018-05-26T15:17:02.627Z,24.46
2018-05-26T15:18:02.615Z,24.59
2018-05-26T15:19:02.646Z,24.59
2018-05-26T15:20:02.734Z,24.62
2018-05-26T15:21:02.651Z,24.65
2018-05-26T15:22:02.675Z,24.66
2018-05-26T15:23:02.736Z,24.68
2018-05-26T15:24:02.731Z,24.61
2018-05-26T15:25:02.729Z,24.69
2018-05-26T15:26:02.796Z,24.77
2018-05-26T15:27:02.737Z,24.75
2018-05-26T15:28:02.760Z,24.78
2018-05-26T15:29:02.785Z,24.86
2018-05-26T15:30:02.835Z,24.82
2018-05-26T15:31:02.800Z,24.71
2018-05-26T15:32:02.838Z,24.81
2018-05-26T15:33:02.830Z,24.88
2018-05-26T15:34:02.954Z,24.86
2018-05-26T15:35:02.906Z,24.86
2018-05-26T15:36:02.913Z,24.88
2018-05-26T15:37:02.881Z,24.99
2018-05-26T15:38:02.923Z,24.96
2018-05-26T15:39:03.080Z,24.99
2018-05-26T15:40:02.945Z,25.00
2018-05-26T15:41:02.994Z,25.07
2018-05-26T15:42:03.021Z,25.15
2018-05-26T15:43:02.981Z,25.25
2018-05-26T15:44:03.011Z,25.16
2018-05-26T15:45:03.034Z,25.11
2018-05-26T15:46:03.104Z,25.00
2018-05-26T15:47:03.090Z,24.89
2018-05-26T15:48:03.071Z,24.93
2018-05-26T15:49:03.113Z,25.01
2018-05-26T15:50:03.152Z,25.00
2018-05-26T15:51:03.125Z,24.88
2018-05-26T15:52:03.154Z,24.94
2018-05-26T15:53:03.156Z,24.82
2018-05-26T15:54:03.162Z,24.74
2018-05-26T15:55:03.180Z,24.79
2018-05-26T15:56:03.243Z,24.77
2018-05-26T15:57:03.395Z,24.75
2018-05-26T15:58:03.299Z,24.85
2018-05-26T15:59:03.279Z,24.94
2018-05-26T16:00:03.297Z,24.93
2018-05-26T16:01:03.361Z,24.88
2018-05-26T16:02:03.283Z,24.84
2018-05-26T16:03:03.306Z,24.84
2018-05-26T16:04:03.476Z,24.84
2018-05-26T16:05:03.323Z,24.94
2018-05-26T16:06:03.389Z,24.71
2018-05-26T16:07:03.383Z,24.75
2018-05-26T16:08:03.409Z,24.68
2018-05-26T16:09:03.802Z,24.69
2018-05-26T16:10:03.415Z,24.78
2018-05-26T16:11:03.408Z,24.69
2018-05-26T16:12:03.434Z,24.71
2018-05-26T16:13:03.483Z,24.62
2018-05-26T16:14:03.482Z,24.63
2018-05-26T16:15:03.543Z,24.62
2018-05-26T16:16:03.526Z,24.56
2018-05-26T16:17:03.562Z,24.66
2018-05-26T16:18:03.619Z,24.74
2018-05-26T16:19:03.542Z,24.65
2018-05-26T16:20:03.595Z,24.69
2018-05-26T16:21:03.632Z,24.63
2018-05-26T16:22:03.596Z,24.69
2018-05-26T16:23:03.638Z,24.65
2018-05-26T16:24:03.631Z,24.71
2018-05-26T16:25:03.654Z,24.71
2018-05-26T16:26:03.680Z,24.68
2018-05-26T16:27:03.674Z,24.71
2018-05-26T16:28:03.744Z,24.66
2018-05-26T16:29:03.717Z,24.65
2018-05-26T16:30:03.740Z,24.71
2018-05-26T16:31:03.850Z,24.59
2018-05-26T16:32:03.759Z,24.56
2018-05-26T16:33:03.820Z,24.62
2018-05-26T16:34:03.922Z,24.58
2018-05-26T16:35:03.912Z,24.59
2018-05-26T16:36:03.817Z,24.59
2018-05-26T16:37:03.842Z,24.61
2018-05-26T16:38:04.873Z,24.59
2018-05-26T16:39:04.014Z,24.61
2018-05-26T16:40:03.888Z,24.62
2018-05-26T16:41:03.912Z,24.48
2018-05-26T16:42:03.936Z,24.53
2018-05-26T16:43:03.916Z,24.58
2018-05-26T16:44:03.939Z,24.62
2018-05-26T16:45:04.004Z,24.44
2018-05-26T16:46:03.977Z,24.44
2018-05-26T16:47:03.981Z,24.58
2018-05-26T16:48:04.014Z,24.63
2018-05-26T16:49:04.087Z,24.51
2018-05-26T16:50:04.050Z,24.56
2018-05-26T16:51:04.089Z,24.48
2018-05-26T16:52:04.063Z,24.48
2018-05-26T16:53:04.097Z,24.53
